Armada, Michigan
Current Conditions -  °F | °C
As of 2:58 AM on Friday 19 Dec 2014 (Local Time) from KMTC Reporting Station
Overcast Overcast  
Wind Chill: 20°   Ceiling: 1700
Heat Index: 27°   Visibility: 10mi
Dew Point: 25°   Wind: 7mph
Humidity: 93%   Direction: 300°WNW
Pressure: 30.18"   Gusts: NA
Location:  42.84°N, 82.88°W
Report Text: KMTC 190758Z AUTO 30006KT 10SM OVC017 M03/M04 A3018 RMK AO2 SLP231 T10271037 $
Loading
Personal Weather Stations






























Interactive Weather Map New forecast layout! Learn more

10-Day Weather Forecast

Advertisements
Track Severe Weather on mobile